Time;durP1;ratioP1;P1;durP2;ratioP2;P2;SDS_P1;SDS_P2;PMS_P1;PMS_P2;Temp;Humidity;BMP_temperature;BMP_pressure;BME280_temperature;BME280_humidity;BME280_pressure;Samples;Min_cycle;Max_cycle;Signal;HPM_P1;HPM_P2
2022/08/24 00:01:52;;;;;;;40.15;35.58;;;19.00;99.90;;;;;;5074099;28;20052;-72
2022/08/24 00:04:17;;;;;;;40.38;35.35;;;19.00;99.90;;;;;;5074472;28;20040;-72
2022/08/24 00:06:43;;;;;;;43.45;35.50;;;19.00;99.90;;;;;;5076103;28;20101;-72
2022/08/24 00:09:09;;;;;;;44.40;37.45;;;18.90;99.90;;;;;;5061380;28;20463;-72
2022/08/24 00:11:34;;;;;;;44.13;37.75;;;18.90;99.90;;;;;;5077768;28;20479;-72
2022/08/24 00:14:00;;;;;;;43.70;37.63;;;18.90;99.90;;;;;;5078212;28;20044;-72
2022/08/24 00:16:26;;;;;;;45.25;37.00;;;18.90;99.90;;;;;;5078207;28;20044;-72
2022/08/24 00:18:51;;;;;;;47.13;37.08;;;18.90;99.90;;;;;;5060846;28;20357;-72
2022/08/24 00:21:18;;;;;;;49.20;38.35;;;18.80;99.90;;;;;;5076018;28;20451;-72
2022/08/24 00:23:44;;;;;;;44.78;36.67;;;18.80;99.90;;;;;;5057749;28;20409;-72
2022/08/24 00:26:10;;;;;;;43.30;37.70;;;18.80;99.90;;;;;;5057677;28;20179;-72
2022/08/24 00:28:36;;;;;;;52.00;40.30;;;18.70;99.90;;;;;;5057742;28;20458;-72
2022/08/24 00:31:02;;;;;;;44.30;37.80;;;18.70;99.90;;;;;;5057917;28;20045;-72
2022/08/24 00:33:28;;;;;;;40.60;35.72;;;18.70;99.90;;;;;;5057811;28;20120;-72
2022/08/24 00:35:53;;;;;;;48.03;39.90;;;18.70;99.90;;;;;;5057605;28;20073;-72
2022/08/24 00:38:19;;;;;;;44.95;37.58;;;18.70;99.90;;;;;;5060997;28;20036;-72
2022/08/24 00:40:47;;;;;;;49.03;40.25;;;18.60;99.90;;;;;;5077304;28;20094;-72
2022/08/24 00:43:16;;;;;;;47.10;36.53;;;18.70;99.90;;;;;;5077945;28;20334;-72
2022/08/24 00:46:07;;;;;;;47.53;38.83;;;18.50;99.90;;;;;;5077681;28;20094;-72
2022/08/24 00:48:36;;;;;;;50.95;40.42;;;18.60;99.90;;;;;;5030566;28;20088;-72
2022/08/24 00:51:12;;;;;;;53.42;39.28;;;18.60;99.90;;;;;;5077749;28;20052;-72
2022/08/24 00:53:52;;;;;;;45.40;39.30;;;18.50;99.90;;;;;;5037463;28;20037;-72
2022/08/24 00:56:25;;;;;;;48.92;39.65;;;18.50;99.90;;;;;;5037328;28;20123;-71
2022/08/24 00:58:57;;;;;;;46.28;38.92;;;18.60;99.90;;;;;;5037584;28;20053;-72
2022/08/24 01:01:25;;;;;;;44.55;37.55;;;18.50;99.90;;;;;;5019779;28;20054;-72
2022/08/24 01:03:51;;;;;;;51.58;41.95;;;18.40;99.90;;;;;;5037537;28;20045;-72
2022/08/24 01:06:17;;;;;;;45.58;38.97;;;18.40;99.90;;;;;;5040528;28;20357;-72
2022/08/24 01:08:43;;;;;;;42.53;36.92;;;18.40;99.90;;;;;;5057120;28;20124;-72
2022/08/24 01:11:15;;;;;;;40.75;36.13;;;18.40;99.90;;;;;;5039737;28;20106;-72
2022/08/24 01:13:44;;;;;;;56.88;38.03;;;18.40;99.90;;;;;;5057287;28;20080;-72
2022/08/24 01:16:12;;;;;;;50.25;40.35;;;18.30;99.90;;;;;;5040004;28;20102;-73
2022/08/24 01:18:50;;;;;;;50.35;41.95;;;18.30;99.90;;;;;;5056680;28;20515;-72
2022/08/24 01:21:19;;;;;;;44.80;37.97;;;18.30;99.90;;;;;;5061789;28;20051;-72
2022/08/24 01:23:53;;;;;;;48.15;37.88;;;18.30;99.90;;;;;;5076850;28;20059;-72
2022/08/24 01:26:26;;;;;;;51.53;41.55;;;18.20;99.90;;;;;;5076527;28;20444;-72
2022/08/24 01:28:56;;;;;;;50.58;42.10;;;18.30;99.90;;;;;;5076741;28;20128;-72
2022/08/24 01:31:23;;;;;;;50.78;40.85;;;18.30;99.90;;;;;;5076615;28;20044;-72
2022/08/24 01:33:53;;;;;;;46.53;40.05;;;18.20;99.90;;;;;;5074894;28;20136;-72
2022/08/24 01:36:21;;;;;;;47.35;38.33;;;18.20;99.90;;;;;;5076259;28;20128;-72
2022/08/24 01:38:48;;;;;;;41.53;34.85;;;18.20;99.90;;;;;;5076440;28;20091;-72
2022/08/24 01:41:14;;;;;;;46.25;38.10;;;18.10;99.90;;;;;;5076298;28;20464;-72
2022/08/24 01:43:39;;;;;;;45.70;37.13;;;18.10;99.90;;;;;;5075963;28;20054;-73
2022/08/24 01:46:05;;;;;;;46.13;38.65;;;18.10;99.90;;;;;;5059052;28;20484;-72
2022/08/24 01:48:31;;;;;;;43.35;35.78;;;18.10;99.90;;;;;;5076440;28;20430;-72
2022/08/24 01:50:56;;;;;;;38.70;32.33;;;18.10;99.90;;;;;;5067714;28;20040;-72
2022/08/24 01:53:22;;;;;;;49.22;40.67;;;18.00;99.90;;;;;;5056145;28;20037;-72
2022/08/24 01:55:49;;;;;;;48.78;40.13;;;18.00;99.90;;;;;;5056254;28;20040;-72
2022/08/24 01:58:14;;;;;;;50.35;40.30;;;18.00;99.90;;;;;;5055366;28;20057;-72
2022/08/24 02:00:40;;;;;;;47.88;36.00;;;18.10;99.90;;;;;;5055117;28;20041;-72
2022/08/24 02:03:06;;;;;;;44.20;37.47;;;18.00;99.90;;;;;;5037519;28;20449;-72
2022/08/24 02:05:33;;;;;;;47.72;38.53;;;18.00;99.90;;;;;;5055083;28;20037;-72
2022/08/24 02:07:58;;;;;;;44.08;36.80;;;18.00;99.90;;;;;;5054945;28;20044;-72
2022/08/24 02:10:26;;;;;;;52.38;43.85;;;17.90;99.90;;;;;;5054866;28;20453;-72
2022/08/24 02:12:58;;;;;;;46.40;39.25;;;18.00;99.90;;;;;;5054872;28;20037;-72
2022/08/24 02:15:30;;;;;;;46.33;36.40;;;17.90;99.90;;;;;;5059574;28;20037;-72
2022/08/24 02:17:57;;;;;;;50.10;38.75;;;18.10;99.90;;;;;;5074884;28;20368;-72
2022/08/24 02:20:23;;;;;;;45.22;37.58;;;18.00;99.90;;;;;;5074704;28;20040;-72
2022/08/24 02:22:50;;;;;;;51.63;40.55;;;17.90;99.90;;;;;;5074842;28;20127;-72
2022/08/24 02:25:17;;;;;;;50.13;40.42;;;18.00;99.90;;;;;;5075193;28;20421;-72
2022/08/24 02:27:43;;;;;;;48.85;38.47;;;17.90;99.90;;;;;;5075603;28;20055;-72
2022/08/24 02:30:09;;;;;;;49.95;40.33;;;17.90;99.90;;;;;;5073743;28;20123;-71
2022/08/24 02:32:34;;;;;;;50.58;39.53;;;17.90;99.90;;;;;;5074557;28;20052;-72
2022/08/24 02:35:00;;;;;;;46.95;37.78;;;17.90;99.90;;;;;;5075093;28;20045;-72
2022/08/24 02:37:25;;;;;;;40.85;34.92;;;17.90;99.90;;;;;;5074688;28;20123;-72
2022/08/24 02:39:52;;;;;;;43.08;36.42;;;17.80;99.90;;;;;;5074594;28;20464;-72
2022/08/24 02:42:17;;;;;;;44.90;38.28;;;17.80;99.90;;;;;;5057387;28;20054;-72
2022/08/24 02:44:43;;;;;;;47.92;38.20;;;17.80;99.90;;;;;;5070840;28;20040;-72
2022/08/24 02:47:09;;;;;;;37.85;33.67;;;17.70;99.90;;;;;;5037150;28;20080;-72
2022/08/24 02:49:35;;;;;;;43.63;36.92;;;17.70;99.90;;;;;;5037004;28;20037;-72
2022/08/24 02:52:02;;;;;;;43.22;34.38;;;17.70;99.90;;;;;;5054233;28;20049;-72
2022/08/24 02:54:27;;;;;;;45.90;37.17;;;17.70;99.90;;;;;;5054688;28;20045;-72
2022/08/24 02:56:53;;;;;;;48.40;37.67;;;17.70;99.90;;;;;;5018341;28;1030588;-72
2022/08/24 02:59:19;;;;;;;43.42;36.47;;;17.70;99.90;;;;;;5055012;28;20144;-72
2022/08/24 03:01:45;;;;;;;47.42;35.47;;;17.70;99.90;;;;;;5055251;28;20037;-72
2022/08/24 03:04:12;;;;;;;51.22;37.35;;;17.60;99.90;;;;;;5055252;28;20469;-72
2022/08/24 03:06:37;;;;;;;43.90;35.15;;;17.70;99.90;;;;;;5055561;28;20163;-72
2022/08/24 03:09:03;;;;;;;45.40;35.50;;;17.60;99.90;;;;;;5054871;28;20124;-72
2022/08/24 03:11:29;;;;;;;42.97;35.13;;;17.60;99.90;;;;;;5054892;28;20053;-72
2022/08/24 03:13:57;;;;;;;45.20;36.95;;;17.60;99.90;;;;;;5004408;28;20057;-72
2022/08/24 03:16:24;;;;;;;45.75;34.45;;;17.60;99.90;;;;;;5074634;28;20411;-72
2022/08/24 03:18:50;;;;;;;50.88;40.55;;;17.50;99.90;;;;;;5075594;28;20094;-72
2022/08/24 03:21:16;;;;;;;51.88;38.75;;;17.60;99.90;;;;;;5074858;28;20044;-72
2022/08/24 03:23:41;;;;;;;45.97;36.17;;;17.40;99.90;;;;;;5074658;28;20044;-72
2022/08/24 03:26:07;;;;;;;44.75;36.13;;;17.50;99.90;;;;;;5075253;28;20040;-72
2022/08/24 03:28:32;;;;;;;43.55;34.58;;;17.40;99.90;;;;;;5075012;28;20037;-72
2022/08/24 03:30:58;;;;;;;45.63;35.72;;;17.50;99.90;;;;;;5022545;28;20065;-73
2022/08/24 03:33:24;;;;;;;47.88;36.22;;;17.50;99.90;;;;;;5074622;28;20123;-72
2022/08/24 03:35:50;;;;;;;44.03;36.47;;;17.40;99.90;;;;;;5074190;28;20075;-72
2022/08/24 03:38:15;;;;;;;41.25;33.35;;;17.40;99.90;;;;;;5074948;28;20049;-71
2022/08/24 03:40:41;;;;;;;45.13;37.83;;;17.40;99.90;;;;;;5075349;28;20046;-72
2022/08/24 03:43:07;;;;;;;40.67;36.08;;;17.40;99.90;;;;;;5078826;28;20181;-72
2022/08/24 03:45:33;;;;;;;43.53;35.05;;;17.40;99.90;;;;;;5046188;28;20053;-72
2022/08/24 03:47:59;;;;;;;47.58;37.53;;;17.30;99.90;;;;;;5058773;28;20045;-72
2022/08/24 03:50:25;;;;;;;48.95;38.40;;;17.40;99.90;;;;;;5058895;28;20179;-71
2022/08/24 03:52:52;;;;;;;44.78;35.00;;;17.40;99.90;;;;;;5058522;28;20060;-72
2022/08/24 03:55:17;;;;;;;47.05;36.58;;;17.30;99.90;;;;;;5058718;28;20511;-72
2022/08/24 03:57:45;;;;;;;44.63;35.45;;;17.30;99.90;;;;;;5060056;28;20049;-72
2022/08/24 04:00:12;;;;;;;46.70;35.17;;;17.20;99.90;;;;;;5064108;28;20067;-72
2022/08/24 04:02:37;;;;;;;36.35;31.92;;;17.20;99.90;;;;;;5064454;28;20029;-72
2022/08/24 04:05:06;;;;;;;43.42;33.53;;;17.20;99.90;;;;;;5064264;28;20072;-73
2022/08/24 04:07:31;;;;;;;37.35;30.27;;;17.20;99.90;;;;;;5058899;28;20049;-72
2022/08/24 04:09:57;;;;;;;41.97;32.83;;;17.10;99.90;;;;;;5075842;28;20064;-72
2022/08/24 04:12:23;;;;;;;42.95;34.42;;;17.20;99.90;;;;;;5067939;28;20398;-72
2022/08/24 04:14:51;;;;;;;40.85;34.72;;;17.20;99.90;;;;;;5077940;28;20048;-73
2022/08/24 04:17:17;;;;;;;38.67;31.48;;;17.20;99.90;;;;;;5061122;28;20048;-72
2022/08/24 04:19:56;;;;;;;37.80;32.13;;;17.20;99.90;;;;;;5058499;28;20045;-73
2022/08/24 04:22:23;;;;;;;38.67;31.95;;;17.20;99.90;;;;;;5058202;28;20045;-72
2022/08/24 04:24:49;;;;;;;43.95;35.28;;;17.20;99.90;;;;;;5058265;28;20044;-72
2022/08/24 04:27:15;;;;;;;43.58;35.95;;;17.10;99.90;;;;;;5057903;28;20045;-72
2022/08/24 04:29:40;;;;;;;41.78;34.42;;;17.10;99.90;;;;;;5057973;28;20049;-72
2022/08/24 04:32:06;;;;;;;40.40;35.58;;;17.10;99.90;;;;;;5057524;28;20041;-73
2022/08/24 04:34:32;;;;;;;43.28;33.63;;;17.10;99.90;;;;;;5057529;28;20041;-72
2022/08/24 04:36:58;;;;;;;44.03;37.33;;;17.10;99.90;;;;;;5058182;28;20037;-72
2022/08/24 04:39:23;;;;;;;41.75;34.80;;;17.10;99.90;;;;;;5057814;28;20564;-72
2022/08/24 04:41:49;;;;;;;40.05;32.55;;;17.10;99.90;;;;;;5057788;28;20045;-72
2022/08/24 04:44:15;;;;;;;43.42;34.90;;;17.10;99.90;;;;;;5057623;28;20045;-72
2022/08/24 04:46:40;;;;;;;43.22;36.05;;;17.10;99.90;;;;;;5060165;28;20047;-72
2022/08/24 04:49:06;;;;;;;41.33;33.13;;;17.10;99.90;;;;;;5077164;28;20436;-72
2022/08/24 04:51:32;;;;;;;43.95;34.50;;;17.10;99.90;;;;;;5077052;28;20586;-72
2022/08/24 04:53:57;;;;;;;39.10;33.03;;;17.10;99.90;;;;;;5077536;28;20086;-72
2022/08/24 04:56:24;;;;;;;39.60;33.97;;;17.10;99.90;;;;;;5077226;28;20048;-72
2022/08/24 04:58:54;;;;;;;43.80;34.28;;;17.20;99.90;;;;;;5059457;28;20061;-72
2022/08/24 05:01:24;;;;;;;41.92;34.60;;;17.20;99.90;;;;;;5076992;28;20102;-72
2022/08/24 05:03:53;;;;;;;43.53;33.67;;;17.20;99.90;;;;;;5076817;28;20047;-72
2022/08/24 05:06:24;;;;;;;40.30;33.95;;;17.30;99.90;;;;;;5077444;28;20105;-72
2022/08/24 05:08:50;;;;;;;42.80;35.90;;;17.30;99.90;;;;;;5077142;28;20086;-72
2022/08/24 05:11:18;;;;;;;44.78;35.60;;;17.40;99.90;;;;;;5077042;28;20037;-72
2022/08/24 05:13:44;;;;;;;46.72;38.40;;;17.40;99.90;;;;;;5078751;28;20044;-72
2022/08/24 05:16:13;;;;;;;43.90;36.15;;;17.50;99.90;;;;;;5077006;28;20033;-72
2022/08/24 05:18:39;;;;;;;49.92;38.65;;;17.50;99.90;;;;;;5057566;28;20044;-72
2022/08/24 05:21:10;;;;;;;45.38;37.63;;;17.60;99.90;;;;;;5057043;28;20049;-72
2022/08/24 05:23:37;;;;;;;42.30;35.33;;;17.60;99.90;;;;;;5056159;28;20530;-72
2022/08/24 05:26:07;;;;;;;42.45;34.33;;;17.60;99.90;;;;;;5039144;28;20047;-72
2022/08/24 05:28:36;;;;;;;40.65;33.90;;;17.60;99.90;;;;;;5057124;28;20045;-71
2022/08/24 05:31:10;;;;;;;41.28;34.47;;;17.60;99.90;;;;;;5056797;28;20049;-72
2022/08/24 05:33:36;;;;;;;35.75;31.85;;;17.70;99.90;;;;;;5056610;28;20365;-72
2022/08/24 05:36:03;;;;;;;36.70;31.15;;;17.70;99.90;;;;;;5056764;28;20045;-72
2022/08/24 05:38:28;;;;;;;35.33;30.05;;;17.80;99.90;;;;;;5056539;28;20136;-72
2022/08/24 05:40:54;;;;;;;39.92;33.15;;;17.90;99.90;;;;;;5067879;28;20040;-72
2022/08/24 05:43:20;;;;;;;41.10;34.15;;;17.90;99.90;;;;;;5076318;28;20096;-72
2022/08/24 05:45:45;;;;;;;39.40;33.67;;;18.00;99.90;;;;;;5076791;28;20056;-72
2022/08/24 05:48:11;;;;;;;38.53;33.28;;;18.10;99.90;;;;;;5073590;28;20467;-72
2022/08/24 05:50:37;;;;;;;37.95;32.40;;;18.20;99.90;;;;;;5056449;28;20064;-72
2022/08/24 05:53:03;;;;;;;41.38;31.85;;;18.50;99.90;;;;;;5056253;28;20444;-73
2022/08/24 05:55:29;;;;;;;34.20;30.00;;;18.70;99.90;;;;;;5038777;28;20143;-72
2022/08/24 05:57:55;;;;;;;41.50;33.15;;;19.00;99.90;;;;;;5056477;28;20053;-72
2022/08/24 06:00:22;;;;;;;36.40;29.52;;;19.70;99.90;;;;;;5056606;28;20041;-73
2022/08/24 06:02:51;;;;;;;35.67;28.95;;;20.70;99.90;;;;;;5056104;28;20037;-73
2022/08/24 06:05:17;;;;;;;27.00;23.58;;;21.80;99.90;;;;;;5060582;28;20052;-73
2022/08/24 06:07:42;;;;;;;25.58;22.55;;;22.90;99.90;;;;;;5075292;28;20044;-73
2022/08/24 06:10:10;;;;;;;25.25;22.55;;;23.80;99.90;;;;;;5042446;28;20539;-73
2022/08/24 06:12:35;;;;;;;25.02;22.38;;;24.50;99.90;;;;;;5055969;28;20049;-71
2022/08/24 06:15:01;;;;;;;24.50;19.55;;;25.30;99.90;;;;;;5055930;28;20388;-72
2022/08/24 06:17:27;;;;;;;21.35;19.10;;;25.80;99.90;;;;;;5055797;28;20052;-71
2022/08/24 06:19:52;;;;;;;23.42;20.30;;;26.40;99.90;;;;;;5055779;28;20436;-71
2022/08/24 06:22:18;;;;;;;28.27;23.30;;;26.90;99.90;;;;;;5055978;28;20416;-71
2022/08/24 06:27:28;;;;;;;27.55;22.02;;;27.70;99.90;;;;;;5075196;28;20056;-72
2022/08/24 06:29:58;;;;;;;24.08;21.45;;;28.10;99.90;;;;;;5075705;28;20531;-71
2022/08/24 06:32:24;;;;;;;22.05;19.67;;;28.50;99.90;;;;;;5075566;28;20476;-72
2022/08/24 06:34:54;;;;;;;24.95;20.48;;;28.90;99.90;;;;;;5075435;28;20452;-72
2022/08/24 06:37:19;;;;;;;23.45;20.02;;;29.30;99.90;;;;;;5075766;28;20055;-72
2022/08/24 06:39:45;;;;;;;23.05;19.75;;;29.60;99.90;;;;;;5075304;28;20044;-72
2022/08/24 06:42:11;;;;;;;21.83;19.00;;;29.90;99.90;;;;;;5035477;28;20037;-73
2022/08/24 06:44:36;;;;;;;26.63;20.77;;;30.30;99.90;;;;;;5035353;28;20092;-71
2022/08/24 06:47:02;;;;;;;24.30;21.60;;;30.60;99.90;;;;;;5035478;28;20369;-71
2022/08/24 06:49:27;;;;;;;23.85;19.98;;;30.80;99.90;;;;;;5035322;28;20107;-71
2022/08/24 06:51:53;;;;;;;24.48;21.17;;;31.10;99.90;;;;;;5035272;28;20037;-72
2022/08/24 06:54:21;;;;;;;28.08;20.40;;;31.00;99.30;;;;;;5017921;28;20057;-71
2022/08/24 06:56:47;;;;;;;20.63;18.42;;;30.40;99.20;;;;;;5072127;28;20121;-71
2022/08/24 06:59:13;;;;;;;23.17;19.05;;;29.50;99.30;;;;;;5075116;28;20440;-71
2022/08/24 07:01:39;;;;;;;24.42;17.00;;;28.70;99.60;;;;;;5074984;28;20051;-71
2022/08/24 07:04:04;;;;;;;20.95;18.60;;;28.10;99.90;;;;;;5075163;28;20041;-70
2022/08/24 07:06:30;;;;;;;26.45;16.98;;;27.50;99.90;;;;;;5075249;28;20040;-71
2022/08/24 07:08:55;;;;;;;22.70;16.50;;;27.00;99.90;;;;;;5074864;28;20044;-70
2022/08/24 07:11:22;;;;;;;20.58;15.43;;;26.60;99.90;;;;;;5074539;28;20040;-70
2022/08/24 07:13:49;;;;;;;18.17;13.95;;;26.20;99.90;;;;;;5075233;28;20052;-73
2022/08/24 07:16:16;;;;;;;15.95;12.30;;;25.90;99.90;;;;;;5074722;28;20037;-72
2022/08/24 07:18:42;;;;;;;13.23;10.20;;;25.80;99.90;;;;;;5075006;28;20360;-73
2022/08/24 07:21:08;;;;;;;12.20;8.98;;;25.60;99.90;;;;;;5039640;28;20049;-72
2022/08/24 07:23:33;;;;;;;11.38;8.15;;;25.40;99.90;;;;;;5075090;28;20051;-73
2022/08/24 07:26:12;;;;;;;9.45;5.68;;;25.40;99.90;;;;;;5069816;28;20508;-72
2022/08/24 07:28:39;;;;;;;6.75;4.95;;;25.30;99.90;;;;;;5056930;28;20049;-73
2022/08/24 07:31:05;;;;;;;6.95;4.07;;;25.30;99.90;;;;;;5074634;28;20342;-72
2022/08/24 07:33:32;;;;;;;4.97;3.13;;;25.20;99.90;;;;;;5074733;28;20052;-73
2022/08/24 07:35:58;;;;;;;5.55;3.88;;;25.20;99.90;;;;;;5075279;28;20056;-72
2022/08/24 07:38:25;;;;;;;6.40;4.18;;;25.20;99.90;;;;;;5074814;28;20508;-72
2022/08/24 07:40:51;;;;;;;5.68;3.63;;;25.10;99.90;;;;;;5074922;28;20407;-72
2022/08/24 07:43:17;;;;;;;8.77;4.47;;;25.10;99.90;;;;;;5073910;28;20041;-73
2022/08/24 07:45:42;;;;;;;9.35;5.07;;;25.10;99.90;;;;;;5074867;28;20040;-72
2022/08/24 07:48:08;;;;;;;5.80;4.13;;;25.10;99.90;;;;;;5074585;28;20056;-72
2022/08/24 07:50:36;;;;;;;9.02;4.45;;;25.10;99.90;;;;;;5075009;28;20041;-72
2022/08/24 07:53:01;;;;;;;10.40;5.25;;;25.00;99.90;;;;;;5075018;28;20109;-73
2022/08/24 07:55:27;;;;;;;6.70;4.20;;;25.10;99.90;;;;;;5062910;28;20049;-73
2022/08/24 07:57:53;;;;;;;5.22;3.70;;;25.10;99.90;;;;;;5054788;28;20056;-72
2022/08/24 08:00:19;;;;;;;9.00;3.80;;;25.10;99.90;;;;;;5054446;28;20060;-73
2022/08/24 08:02:46;;;;;;;5.38;3.50;;;25.20;99.90;;;;;;5054291;28;20048;-73
2022/08/24 08:05:14;;;;;;;9.65;3.42;;;25.30;99.90;;;;;;5054281;28;20473;-73
2022/08/24 08:07:40;;;;;;;7.22;3.10;;;25.30;99.90;;;;;;5054245;28;20076;-73
2022/08/24 08:10:06;;;;;;;7.68;4.25;;;25.30;99.90;;;;;;5064228;28;20217;-72
2022/08/24 08:12:34;;;;;;;7.82;3.95;;;25.40;99.90;;;;;;5073971;28;20037;-73
2022/08/24 08:15:00;;;;;;;7.90;3.92;;;26.30;99.90;;;;;;5074401;28;20040;-73
2022/08/24 08:17:26;;;;;;;7.90;4.60;;;27.60;99.90;;;;;;5075186;28;20306;-73
2022/08/24 08:19:51;;;;;;;7.38;4.15;;;28.60;99.90;;;;;;5069579;28;20041;-70
2022/08/24 08:25:06;;;;;;;7.40;3.75;;;29.90;98.70;;;;;;5054563;28;20041;-71
2022/08/24 08:27:33;;;;;;;5.75;3.15;;;30.60;98.10;;;;;;5055955;28;20476;-70
2022/08/24 08:29:59;;;;;;;4.20;2.78;;;31.00;97.60;;;;;;5073805;28;20130;-70
2022/08/24 08:32:24;;;;;;;6.07;3.17;;;31.30;97.30;;;;;;5057904;28;20037;-70
2022/08/24 08:34:50;;;;;;;7.47;3.03;;;31.80;96.90;;;;;;5057077;28;20457;-71
2022/08/24 08:37:15;;;;;;;7.05;2.80;;;31.70;96.70;;;;;;5057718;28;20044;-70
2022/08/24 08:39:41;;;;;;;6.03;3.00;;;32.20;96.10;;;;;;5070189;28;20055;-71
2022/08/24 08:42:26;;;;;;;7.03;2.95;;;32.40;95.70;;;;;;5077514;28;20056;-70
2022/08/24 08:45:06;;;;;;;7.45;3.47;;;32.40;95.90;;;;;;5077452;28;20475;-70
2022/08/24 08:48:05;;;;;;;6.30;3.30;;;32.30;94.60;;;;;;5077936;28;20145;-71
2022/08/24 08:51:07;;;;;;;4.05;2.10;;;32.40;94.00;;;;;;5077920;28;20467;-71
2022/08/24 08:54:03;;;;;;;7.10;2.45;;;32.40;94.00;;;;;;5076906;28;20119;-71
2022/08/24 08:56:55;;;;;;;7.88;2.67;;;32.00;94.20;;;;;;5064949;28;20044;-70
2022/08/24 08:59:20;;;;;;;7.47;2.43;;;31.80;93.80;;;;;;5057502;28;20071;-70
2022/08/24 09:02:06;;;;;;;4.13;2.33;;;31.50;95.00;;;;;;5057259;28;20128;-71
2022/08/24 09:04:46;;;;;;;6.50;2.55;;;31.20;95.30;;;;;;5057120;28;20041;-71
2022/08/24 09:07:31;;;;;;;4.38;2.00;;;30.80;95.20;;;;;;5057364;28;20095;-71
2022/08/24 09:10:03;;;;;;;7.85;2.40;;;30.50;95.00;;;;;;5071170;28;20053;-70
2022/08/24 09:12:49;;;;;;;6.97;2.40;;;30.20;95.80;;;;;;5077387;28;20502;-70
2022/08/24 09:15:49;;;;;;;5.95;2.88;;;29.80;95.40;;;;;;5064618;28;20292;-70
2022/08/24 09:18:49;;;;;;;4.75;2.05;;;29.40;95.70;;;;;;5041075;28;20399;-71
2022/08/24 09:21:38;;;;;;;6.78;2.40;;;29.10;95.40;;;;;;5021509;28;20057;-71
2022/08/24 09:24:25;;;;;;;5.35;2.25;;;29.00;96.40;;;;;;5057336;28;20049;-70
2022/08/24 09:27:12;;;;;;;7.57;2.30;;;29.00;96.50;;;;;;5057042;28;20361;-70
2022/08/24 09:30:02;;;;;;;7.85;2.50;;;29.30;95.70;;;;;;5065324;28;20036;-70
2022/08/24 09:32:50;;;;;;;7.68;2.53;;;29.70;95.60;;;;;;5076583;28;20051;-70
2022/08/24 09:35:30;;;;;;;5.25;2.10;;;30.00;95.50;;;;;;5076916;28;20119;-70
2022/08/24 09:38:04;;;;;;;6.45;2.35;;;30.60;95.50;;;;;;5075740;28;20456;-70
2022/08/24 09:40:53;;;;;;;5.53;2.40;;;31.10;94.90;;;;;;5076378;28;20075;-70
2022/08/24 09:43:27;;;;;;;6.22;2.00;;;31.60;94.60;;;;;;5076641;28;20098;-70
2022/08/24 09:46:12;;;;;;;6.38;2.80;;;31.50;94.50;;;;;;5041682;28;20114;-71
2022/08/24 09:48:41;;;;;;;4.47;2.05;;;31.00;93.40;;;;;;5056848;28;20124;-70
2022/08/24 09:51:33;;;;;;;6.03;2.35;;;30.40;94.50;;;;;;5056708;28;20045;-71
2022/08/24 09:54:07;;;;;;;6.28;2.20;;;30.10;94.90;;;;;;5056340;28;20337;-70
2022/08/24 09:56:39;;;;;;;6.03;2.40;;;29.70;95.30;;;;;;5056099;28;20044;-70
2022/08/24 09:59:07;;;;;;;4.97;2.07;;;29.60;95.90;;;;;;5056457;28;20128;-70
2022/08/24 10:02:04;;;;;;;6.70;2.85;;;29.50;95.70;;;;;;5056171;28;20049;-70
2022/08/24 10:04:57;;;;;;;5.28;2.72;;;29.40;95.70;;;;;;5055999;28;20496;-70
2022/08/24 10:07:54;;;;;;;5.53;2.53;;;29.30;95.70;;;;;;5056181;28;20452;-71
2022/08/24 10:10:33;;;;;;;9.25;2.72;;;29.10;95.30;;;;;;5052647;28;20059;-70
2022/08/24 10:13:16;;;;;;;6.55;2.10;;;29.00;95.80;;;;;;5056042;28;20118;-70
2022/08/24 10:15:50;;;;;;;6.35;3.17;;;29.00;96.10;;;;;;5074589;28;20054;-70
2022/08/24 10:18:22;;;;;;;4.50;2.47;;;29.00;95.80;;;;;;5076244;28;20041;-71
2022/08/24 10:21:18;;;;;;;7.53;2.58;;;28.90;95.80;;;;;;5075882;28;20041;-71
2022/08/24 10:24:12;;;;;;;4.35;2.40;;;29.00;96.40;;;;;;5075538;28;20044;-71
2022/08/24 10:27:14;;;;;;;6.72;2.13;;;29.00;95.90;;;;;;5076017;28;20364;-70
2022/08/24 10:30:17;;;;;;;4.25;3.00;;;29.10;96.40;;;;;;5062732;28;20044;-70
2022/08/24 10:32:53;;;;;;;;;;;29.10;95.70;;;;;;5056195;28;20057;-70
2022/08/24 10:35:22;;;;;;;4.18;2.10;;;29.20;96.90;;;;;;5037950;28;19936;-70
2022/08/24 10:41:40;;;;;;;4.45;1.92;;;29.60;96.50;;;;;;5055402;28;20060;-70
2022/08/24 10:44:24;;;;;;;4.78;2.33;;;29.60;95.50;;;;;;5070471;28;20106;-70
2022/08/24 10:46:51;;;;;;;4.60;1.92;;;29.60;95.50;;;;;;5055434;28;20057;-71
2022/08/24 10:49:46;;;;;;;8.07;2.08;;;29.50;95.30;;;;;;5055026;28;20045;-73
2022/08/24 10:52:54;;;;;;;3.97;1.70;;;29.40;95.50;;;;;;5054989;28;20075;-73
2022/08/24 10:55:24;;;;;;;3.97;1.83;;;29.60;95.90;;;;;;5046833;28;20219;-73
2022/08/24 10:58:33;;;;;;;3.45;1.55;;;29.80;96.00;;;;;;5052982;28;20045;-73
2022/08/24 11:01:22;;;;;;;2.90;1.40;;;30.00;94.80;;;;;;5055236;28;20081;-73
2022/08/24 11:03:51;;;;;;;5.03;1.80;;;30.10;95.50;;;;;;5055250;28;20049;-73
2022/08/24 11:06:18;;;;;;;2.60;1.63;;;30.10;94.90;;;;;;5055114;28;20037;-73
2022/08/24 11:08:57;;;;;;;3.92;1.48;;;30.20;94.80;;;;;;5055121;28;20083;-73
2022/08/24 11:11:31;;;;;;;3.63;1.55;;;30.20;94.90;;;;;;5055066;28;20045;-72
2022/08/24 11:14:05;;;;;;;2.80;1.52;;;30.30;95.40;;;;;;5062809;28;20472;-73
2022/08/24 11:16:41;;;;;;;4.78;1.58;;;30.40;95.20;;;;;;5075146;28;20055;-74
2022/08/24 11:19:11;;;;;;;3.58;1.30;;;30.60;95.20;;;;;;5075264;28;20059;-72
2022/08/24 11:21:45;;;;;;;2.85;1.40;;;30.70;94.80;;;;;;5074801;28;20041;-73
2022/08/24 11:24:16;;;;;;;3.78;1.27;;;30.80;94.90;;;;;;5074781;28;20136;-73
2022/08/24 11:27:05;;;;;;;2.87;1.20;;;30.90;94.70;;;;;;5075124;28;20045;-73
2022/08/24 11:29:49;;;;;;;3.60;1.35;;;30.90;94.10;;;;;;5074787;28;20331;-73
2022/08/24 11:32:51;;;;;;;2.28;1.20;;;31.10;93.80;;;;;;5074827;28;20114;-73
2022/08/24 11:35:33;;;;;;;2.53;1.33;;;31.00;94.00;;;;;;5075123;28;20360;-73
2022/08/24 11:38:08;;;;;;;2.80;1.02;;;31.20;93.30;;;;;;5074857;28;20037;-73
2022/08/24 11:40:39;;;;;;;2.03;1.00;;;31.30;93.00;;;;;;5074572;28;20048;-73
2022/08/24 11:43:41;;;;;;;3.15;1.20;;;31.30;92.80;;;;;;5069175;28;20041;-73
2022/08/24 11:46:31;;;;;;;2.60;1.20;;;31.40;93.10;;;;;;5054558;28;20452;-73
2022/08/24 11:49:16;;;;;;;2.20;1.00;;;31.30;92.50;;;;;;5054681;28;20099;-73
2022/08/24 11:52:25;;;;;;;1.58;0.80;;;31.10;93.00;;;;;;5054844;28;20045;-73
2022/08/24 11:55:07;;;;;;;2.15;0.98;;;31.10;93.30;;;;;;5054698;28;20033;-73
2022/08/24 11:57:39;;;;;;;2.65;1.00;;;31.30;93.50;;;;;;5057139;28;20121;-73
2022/08/24 12:00:14;;;;;;;3.22;1.20;;;31.50;93.80;;;;;;5074056;28;20381;-73
2022/08/24 12:03:17;;;;;;;2.47;1.17;;;31.40;92.70;;;;;;5076766;28;20048;-73
2022/08/24 12:05:48;;;;;;;4.93;1.15;;;31.40;92.20;;;;;;5073120;28;20048;-73
2022/08/24 12:08:29;;;;;;;2.40;1.23;;;31.20;92.60;;;;;;5078473;28;20457;-73
2022/08/24 12:11:23;;;;;;;2.25;1.10;;;30.90;92.20;;;;;;5078497;28;20106;-73
2022/08/24 12:14:19;;;;;;;2.33;1.17;;;30.80;92.90;;;;;;5019252;28;20064;-73
2022/08/24 12:16:58;;;;;;;3.20;1.13;;;30.90;92.80;;;;;;5057589;28;20064;-73
2022/08/24 12:19:43;;;;;;;4.55;1.08;;;31.00;92.60;;;;;;5058339;28;20468;-74
2022/08/24 12:22:11;;;;;;;2.53;1.13;;;30.90;92.80;;;;;;5057890;28;20551;-73
2022/08/24 12:24:50;;;;;;;1.35;0.85;;;31.10;93.10;;;;;;5057853;28;20465;-73
2022/08/24 12:27:24;;;;;;;2.15;1.20;;;31.30;92.70;;;;;;5057842;28;20041;-73
2022/08/24 12:30:11;;;;;;;2.50;1.25;;;31.50;92.30;;;;;;5058111;28;20072;-73
2022/08/24 12:32:53;;;;;;;4.22;1.17;;;31.60;92.10;;;;;;5058051;28;20041;-70
2022/08/24 12:35:44;;;;;;;2.25;1.10;;;31.70;92.40;;;;;;5057827;28;20049;-71
2022/08/24 12:38:26;;;;;;;1.92;1.08;;;31.70;92.30;;;;;;5058284;28;20041;-70
2022/08/24 12:41:44;;;;;;;2.55;1.17;;;31.70;92.20;;;;;;5057650;28;20477;-70
2022/08/24 12:44:13;;;;;;;1.60;1.00;;;31.60;92.20;;;;;;5035840;28;20053;-70
2022/08/24 12:46:41;;;;;;;2.10;1.10;;;31.30;92.00;;;;;;5055806;28;20065;-71
2022/08/24 12:49:22;;;;;;;2.65;1.20;;;31.10;92.30;;;;;;5057444;28;20461;-71
2022/08/24 12:51:59;;;;;;;5.28;1.20;;;31.00;92.80;;;;;;5057873;28;20417;-71
2022/08/24 12:54:39;;;;;;;2.25;1.00;;;31.00;93.50;;;;;;5057777;28;20143;-70
2022/08/24 12:57:32;;;;;;;3.65;1.20;;;31.00;93.40;;;;;;5057107;28;20148;-70
2022/08/24 13:00:25;;;;;;;3.28;1.17;;;31.00;93.10;;;;;;5057238;28;20060;-71
2022/08/24 13:03:02;;;;;;;2.10;1.10;;;31.00;92.20;;;;;;5040336;28;20040;-70
2022/08/24 13:05:47;;;;;;;3.25;1.30;;;30.80;92.20;;;;;;5042201;28;20033;-71
2022/08/24 13:08:20;;;;;;;3.20;1.02;;;30.70;92.60;;;;;;5057199;28;20049;-71
2022/08/24 13:11:04;;;;;;;4.28;1.15;;;30.60;92.80;;;;;;5057017;28;20045;-71